sensor_id;sensor_type;location;lat;lon;timestamp;pressure;altitude;pressure_sealevel;temperature;humidity
56681;BME280;42558;52.388;13.390;2023-06-10T00:01:33;101137.68;;;15.52;92.40
56681;BME280;42558;52.388;13.390;2023-06-10T00:04:04;101130.95;;;15.52;92.45
56681;BME280;42558;52.388;13.390;2023-06-10T00:06:33;101134.48;;;15.49;92.52
56681;BME280;42558;52.388;13.390;2023-06-10T00:09:05;101134.14;;;15.45;92.63
56681;BME280;42558;52.388;13.390;2023-06-10T00:11:35;101133.25;;;15.45;92.80
56681;BME280;42558;52.388;13.390;2023-06-10T00:14:06;101134.13;;;15.43;92.94
56681;BME280;42558;52.388;13.390;2023-06-10T00:16:36;101129.17;;;15.41;93.01
56681;BME280;42558;52.388;13.390;2023-06-10T00:19:06;101130.59;;;15.34;93.48
56681;BME280;42558;52.388;13.390;2023-06-10T00:21:36;101124.38;;;15.31;93.84
56681;BME280;42558;52.388;13.390;2023-06-10T00:24:09;101129.71;;;15.32;93.75
56681;BME280;42558;52.388;13.390;2023-06-10T00:26:41;101134.14;;;15.33;93.72
56681;BME280;42558;52.388;13.390;2023-06-10T00:29:11;101124.55;;;15.30;93.91
56681;BME280;42558;52.388;13.390;2023-06-10T00:31:41;101127.23;;;15.25;94.28
56681;BME280;42558;52.388;13.390;2023-06-10T00:34:12;101126.35;;;15.25;94.23
56681;BME280;42558;52.388;13.390;2023-06-10T00:36:41;101126.52;;;15.22;94.25
56681;BME280;42558;52.388;13.390;2023-06-10T00:39:12;101122.44;;;15.15;94.88
56681;BME280;42558;52.388;13.390;2023-06-10T00:41:42;101124.91;;;15.15;95.05
56681;BME280;42558;52.388;13.390;2023-06-10T00:44:12;101125.81;;;15.13;95.20
56681;BME280;42558;52.388;13.390;2023-06-10T00:46:42;101123.66;;;15.10;95.59
56681;BME280;42558;52.388;13.390;2023-06-10T00:49:12;101129.34;;;15.10;95.62
56681;BME280;42558;52.388;13.390;2023-06-10T00:51:43;101139.27;;;15.06;95.78
56681;BME280;42558;52.388;13.390;2023-06-10T00:54:13;101132.87;;;15.02;95.91
56681;BME280;42558;52.388;13.390;2023-06-10T00:56:43;101133.75;;;15.04;96.11
56681;BME280;42558;52.388;13.390;2023-06-10T00:59:14;101134.82;;;15.02;96.02
56681;BME280;42558;52.388;13.390;2023-06-10T01:01:45;101132.35;;;15.00;96.14
56681;BME280;42558;52.388;13.390;2023-06-10T01:04:16;101131.09;;;14.97;96.47
56681;BME280;42558;52.388;13.390;2023-06-10T01:07:28;101137.10;;;14.96;96.83
56681;BME280;42558;52.388;13.390;2023-06-10T01:10:20;101138.70;;;14.96;96.41
56681;BME280;42558;52.388;13.390;2023-06-10T01:13:00;101142.77;;;14.95;96.35
56681;BME280;42558;52.388;13.390;2023-06-10T01:15:38;101148.09;;;14.93;96.81
56681;BME280;42558;52.388;13.390;2023-06-10T01:18:10;101142.95;;;14.88;97.03
56681;BME280;42558;52.388;13.390;2023-06-10T01:20:44;101145.43;;;14.85;97.50
56681;BME280;42558;52.388;13.390;2023-06-10T01:23:16;101142.92;;;14.85;97.50
56681;BME280;42558;52.388;13.390;2023-06-10T01:25:53;101142.92;;;14.82;97.47
56681;BME280;42558;52.388;13.390;2023-06-10T01:28:51;101144.86;;;14.78;97.71
56681;BME280;42558;52.388;13.390;2023-06-10T01:31:48;101143.09;;;14.73;97.96
56681;BME280;42558;52.388;13.390;2023-06-10T01:34:20;101142.36;;;14.66;98.62
56681;BME280;42558;52.388;13.390;2023-06-10T01:36:53;101143.23;;;14.65;99.10
56681;BME280;42558;52.388;13.390;2023-06-10T01:39:26;101146.96;;;14.66;98.95
56681;BME280;42558;52.388;13.390;2023-06-10T01:41:58;101145.70;;;14.62;99.06
56681;BME280;42558;52.388;13.390;2023-06-10T01:44:28;101145.35;;;14.59;99.58
56681;BME280;42558;52.388;13.390;2023-06-10T01:46:58;101147.30;;;14.59;99.58
56681;BME280;42558;52.388;13.390;2023-06-10T01:49:28;101147.83;;;14.60;100.00
56681;BME280;42558;52.388;13.390;2023-06-10T01:51:58;101148.71;;;14.58;99.92
56681;BME280;42558;52.388;13.390;2023-06-10T01:54:28;101148.17;;;14.58;99.96
56681;BME280;42558;52.388;13.390;2023-06-10T01:56:58;101149.92;;;14.57;100.00
56681;BME280;42558;52.388;13.390;2023-06-10T01:59:27;101152.40;;;14.54;99.96
56681;BME280;42558;52.388;13.390;2023-06-10T02:01:57;101147.95;;;14.50;100.00
56681;BME280;42558;52.388;13.390;2023-06-10T02:04:27;101149.02;;;14.51;100.00
56681;BME280;42558;52.388;13.390;2023-06-10T02:06:57;101146.70;;;14.47;100.00
56681;BME280;42558;52.388;13.390;2023-06-10T02:09:27;101150.95;;;14.45;100.00
56681;BME280;42558;52.388;13.390;2023-06-10T02:11:58;101150.20;;;14.44;100.00
56681;BME280;42558;52.388;13.390;2023-06-10T02:14:27;101148.95;;;14.43;100.00
56681;BME280;42558;52.388;13.390;2023-06-10T02:16:57;101144.19;;;14.43;100.00
56681;BME280;42558;52.388;13.390;2023-06-10T02:19:27;101148.76;;;14.37;100.00
56681;BME280;42558;52.388;13.390;2023-06-10T02:21:57;101150.70;;;14.33;100.00
56681;BME280;42558;52.388;13.390;2023-06-10T02:24:28;101153.67;;;14.29;100.00
56681;BME280;42558;52.388;13.390;2023-06-10T02:26:58;101151.36;;;14.28;100.00
56681;BME280;42558;52.388;13.390;2023-06-10T02:29:30;101152.08;;;14.28;100.00
56681;BME280;42558;52.388;13.390;2023-06-10T02:32:00;101156.33;;;14.28;100.00
56681;BME280;42558;52.388;13.390;2023-06-10T02:34:30;101152.95;;;14.24;100.00
56681;BME280;42558;52.388;13.390;2023-06-10T02:37:00;101157.53;;;14.22;100.00
56681;BME280;42558;52.388;13.390;2023-06-10T02:39:30;101157.89;;;14.19;100.00
56681;BME280;42558;52.388;13.390;2023-06-10T02:42:00;101157.01;;;14.20;100.00
56681;BME280;42558;52.388;13.390;2023-06-10T02:44:30;101159.63;;;14.17;100.00
56681;BME280;42558;52.388;13.390;2023-06-10T02:47:00;101159.09;;;14.14;100.00
56681;BME280;42558;52.388;13.390;2023-06-10T02:49:30;101157.28;;;14.08;100.00
56681;BME280;42558;52.388;13.390;2023-06-10T02:52:00;101152.86;;;14.07;100.00
56681;BME280;42558;52.388;13.390;2023-06-10T02:54:29;101154.45;;;14.06;100.00
56681;BME280;42558;52.388;13.390;2023-06-10T02:56:58;101155.70;;;14.06;100.00
56681;BME280;42558;52.388;13.390;2023-06-10T02:59:26;101156.40;;;14.05;100.00
56681;BME280;42558;52.388;13.390;2023-06-10T03:01:58;101157.79;;;14.03;100.00
56681;BME280;42558;52.388;13.390;2023-06-10T03:04:31;101162.91;;;14.02;100.00
56681;BME280;42558;52.388;13.390;2023-06-10T03:07:01;101165.02;;;14.01;100.00
56681;BME280;42558;52.388;13.390;2023-06-10T03:09:33;101161.31;;;14.01;100.00
56681;BME280;42558;52.388;13.390;2023-06-10T03:12:04;101159.36;;;14.01;100.00
56681;BME280;42558;52.388;13.390;2023-06-10T03:14:34;101158.31;;;14.02;100.00
56681;BME280;42558;52.388;13.390;2023-06-10T03:17:05;101160.97;;;14.04;100.00
56681;BME280;42558;52.388;13.390;2023-06-10T03:19:35;101161.86;;;14.04;100.00
56681;BME280;42558;52.388;13.390;2023-06-10T03:22:14;101160.27;;;14.04;100.00
56681;BME280;42558;52.388;13.390;2023-06-10T03:24:44;101159.58;;;14.07;100.00
56681;BME280;42558;52.388;13.390;2023-06-10T03:27:16;101158.52;;;14.06;100.00
56681;BME280;42558;52.388;13.390;2023-06-10T03:29:46;101160.46;;;14.07;100.00
56681;BME280;42558;52.388;13.390;2023-06-10T03:32:16;101162.41;;;14.07;100.00
56681;BME280;42558;52.388;13.390;2023-06-10T03:34:47;101165.92;;;14.05;100.00
56681;BME280;42558;52.388;13.390;2023-06-10T03:37:17;101165.95;;;14.08;100.00
56681;BME280;42558;52.388;13.390;2023-06-10T03:39:47;101168.06;;;14.09;100.00
56681;BME280;42558;52.388;13.390;2023-06-10T03:42:17;101166.48;;;14.07;100.00
56681;BME280;42558;52.388;13.390;2023-06-10T03:44:47;101168.60;;;14.07;100.00
56681;BME280;42558;52.388;13.390;2023-06-10T03:47:18;101165.97;;;14.11;100.00
56681;BME280;42558;52.388;13.390;2023-06-10T03:49:47;101169.34;;;14.16;100.00
56681;BME280;42558;52.388;13.390;2023-06-10T03:52:17;101175.71;;;14.16;100.00
56681;BME280;42558;52.388;13.390;2023-06-10T03:54:46;101176.06;;;14.16;100.00
56681;BME280;42558;52.388;13.390;2023-06-10T03:57:14;101183.69;;;14.18;100.00
56681;BME280;42558;52.388;13.390;2023-06-10T03:59:43;101181.77;;;14.20;100.00
56681;BME280;42558;52.388;13.390;2023-06-10T04:02:11;101184.95;;;14.22;100.00
56681;BME280;42558;52.388;13.390;2023-06-10T04:04:40;101184.44;;;14.26;100.00
56681;BME280;42558;52.388;13.390;2023-06-10T04:07:08;101187.81;;;14.30;100.00
56681;BME280;42558;52.388;13.390;2023-06-10T04:09:37;101185.54;;;14.32;100.00
56681;BME280;42558;52.388;13.390;2023-06-10T04:12:06;101185.90;;;14.35;100.00
56681;BME280;42558;52.388;13.390;2023-06-10T04:14:36;101186.44;;;14.38;100.00
56681;BME280;42558;52.388;13.390;2023-06-10T04:17:05;101188.77;;;14.40;100.00
56681;BME280;42558;52.388;13.390;2023-06-10T04:19:38;101190.77;;;14.47;100.00
56681;BME280;42558;52.388;13.390;2023-06-10T04:22:08;101192.39;;;14.53;100.00
56681;BME280;42558;52.388;13.390;2023-06-10T04:24:38;101185.67;;;14.57;100.00
56681;BME280;42558;52.388;13.390;2023-06-10T04:27:08;101184.30;;;14.67;100.00
56681;BME280;42558;52.388;13.390;2023-06-10T04:29:38;101185.04;;;14.74;100.00
56681;BME280;42558;52.388;13.390;2023-06-10T04:32:08;101191.79;;;14.83;100.00
56681;BME280;42558;52.388;13.390;2023-06-10T04:34:37;101197.14;;;14.96;100.00
56681;BME280;42558;52.388;13.390;2023-06-10T04:37:10;101199.27;;;15.03;100.00
56681;BME280;42558;52.388;13.390;2023-06-10T04:39:40;101198.77;;;15.07;100.00
56681;BME280;42558;52.388;13.390;2023-06-10T04:42:12;101201.08;;;15.11;100.00
56681;BME280;42558;52.388;13.390;2023-06-10T04:44:43;101205.66;;;15.10;100.00
56681;BME280;42558;52.388;13.390;2023-06-10T04:47:13;101204.96;;;15.06;100.00
56681;BME280;42558;52.388;13.390;2023-06-10T04:49:43;101207.25;;;15.05;100.00
56681;BME280;42558;52.388;13.390;2023-06-10T04:52:13;101207.79;;;15.05;99.97
56681;BME280;42558;52.388;13.390;2023-06-10T04:54:46;101212.73;;;14.97;100.00
56681;BME280;42558;52.388;13.390;2023-06-10T04:57:18;101205.80;;;14.91;100.00
56681;BME280;42558;52.388;13.390;2023-06-10T04:59:48;101213.80;;;15.04;100.00
56681;BME280;42558;52.388;13.390;2023-06-10T05:02:18;101210.82;;;15.19;99.98
56681;BME280;42558;52.388;13.390;2023-06-10T05:04:49;101214.39;;;15.28;99.84
56681;BME280;42558;52.388;13.390;2023-06-10T05:07:18;101213.69;;;15.34;99.37
56681;BME280;42558;52.388;13.390;2023-06-10T05:09:48;101214.02;;;15.28;99.18
56681;BME280;42558;52.388;13.390;2023-06-10T05:12:18;101212.63;;;15.40;98.96
56681;BME280;42558;52.388;13.390;2023-06-10T05:14:48;101214.58;;;15.42;97.97
56681;BME280;42558;52.388;13.390;2023-06-10T05:17:18;101214.39;;;15.42;97.95
56681;BME280;42558;52.388;13.390;2023-06-10T05:19:48;101215.46;;;15.43;97.93
56681;BME280;42558;52.388;13.390;2023-06-10T05:22:18;101214.80;;;15.63;97.91
56681;BME280;42558;52.388;13.390;2023-06-10T05:24:48;101223.48;;;15.92;96.59
56681;BME280;42558;52.388;13.390;2023-06-10T05:27:18;101225.95;;;16.11;95.29
56681;BME280;42558;52.388;13.390;2023-06-10T05:29:48;101228.60;;;16.12;94.67
56681;BME280;42558;52.388;13.390;2023-06-10T05:32:18;101232.52;;;16.09;94.39
56681;BME280;42558;52.388;13.390;2023-06-10T05:34:48;101231.81;;;15.98;94.24
56681;BME280;42558;52.388;13.390;2023-06-10T05:37:18;101229.86;;;15.96;95.06
56681;BME280;42558;52.388;13.390;2023-06-10T05:39:48;101234.09;;;16.11;94.91
56681;BME280;42558;52.388;13.390;2023-06-10T05:42:18;101232.85;;;16.14;93.96
56681;BME280;42558;52.388;13.390;2023-06-10T05:44:48;101231.58;;;16.27;93.83
56681;BME280;42558;52.388;13.390;2023-06-10T05:47:18;101231.04;;;16.32;93.74
56681;BME280;42558;52.388;13.390;2023-06-10T05:49:50;101230.45;;;16.55;93.33
56681;BME280;42558;52.388;13.390;2023-06-10T05:52:21;101231.14;;;16.57;92.16
56681;BME280;42558;52.388;13.390;2023-06-10T05:54:51;101225.94;;;16.79;92.44
56681;BME280;42558;52.388;13.390;2023-06-10T05:57:21;101229.42;;;16.94;91.10
56681;BME280;42558;52.388;13.390;2023-06-10T05:59:51;101231.33;;;17.04;90.20
56681;BME280;42558;52.388;13.390;2023-06-10T06:02:20;101231.10;;;17.12;89.02
56681;BME280;42558;52.388;13.390;2023-06-10T06:04:48;101231.74;;;17.23;88.56
56681;BME280;42558;52.388;13.390;2023-06-10T06:07:17;101230.84;;;17.24;87.68
56681;BME280;42558;52.388;13.390;2023-06-10T06:09:45;101235.52;;;17.14;87.86
56681;BME280;42558;52.388;13.390;2023-06-10T06:12:15;101231.95;;;17.15;88.33
56681;BME280;42558;52.388;13.390;2023-06-10T06:14:42;101235.66;;;17.24;88.06
56681;BME280;42558;52.388;13.390;2023-06-10T06:17:10;101233.36;;;17.48;87.63
56681;BME280;42558;52.388;13.390;2023-06-10T06:19:39;101237.14;;;17.89;86.38
56681;BME280;42558;52.388;13.390;2023-06-10T06:22:07;101235.90;;;18.26;84.33
56681;BME280;42558;52.388;13.390;2023-06-10T06:24:35;101242.17;;;18.22;83.37
56681;BME280;42558;52.388;13.390;2023-06-10T06:27:04;101245.59;;;18.18;83.78
56681;BME280;42558;52.388;13.390;2023-06-10T06:29:33;101244.84;;;18.04;82.83
56681;BME280;42558;52.388;13.390;2023-06-10T06:32:04;101249.11;;;18.04;84.39
56681;BME280;42558;52.388;13.390;2023-06-10T06:34:32;101248.42;;;18.19;83.97
56681;BME280;42558;52.388;13.390;2023-06-10T06:37:00;101244.49;;;18.55;82.43
56681;BME280;42558;52.388;13.390;2023-06-10T06:39:29;101243.04;;;19.02;81.35
56681;BME280;42558;52.388;13.390;2023-06-10T06:41:57;101245.11;;;19.32;79.55
56681;BME280;42558;52.388;13.390;2023-06-10T06:44:26;101245.42;;;19.34;78.23
56681;BME280;42558;52.388;13.390;2023-06-10T06:46:54;101248.35;;;19.30;78.72
56681;BME280;42558;52.388;13.390;2023-06-10T06:49:23;101254.02;;;19.45;79.00
56681;BME280;42558;52.388;13.390;2023-06-10T06:51:51;101252.75;;;19.57;77.82
56681;BME280;42558;52.388;13.390;2023-06-10T06:54:19;101254.95;;;19.99;77.88
56681;BME280;42558;52.388;13.390;2023-06-10T06:56:48;101252.51;;;20.35;76.03
56681;BME280;42558;52.388;13.390;2023-06-10T06:59:16;101251.31;;;20.32;74.08
56681;BME280;42558;52.388;13.390;2023-06-10T07:01:48;101250.11;;;20.20;73.77
56681;BME280;42558;52.388;13.390;2023-06-10T07:04:18;101252.67;;;20.07;74.45
56681;BME280;42558;52.388;13.390;2023-06-10T07:06:49;101251.70;;;20.41;73.57
56681;BME280;42558;52.388;13.390;2023-06-10T07:09:19;101248.86;;;20.93;71.73
56681;BME280;42558;52.388;13.390;2023-06-10T07:11:49;101244.73;;;21.58;69.33
56681;BME280;42558;52.388;13.390;2023-06-10T07:14:19;101248.48;;;22.16;67.73
56681;BME280;42558;52.388;13.390;2023-06-10T07:16:49;101251.61;;;21.84;65.68
56681;BME280;42558;52.388;13.390;2023-06-10T07:19:19;101251.88;;;21.74;68.07
56681;BME280;42558;52.388;13.390;2023-06-10T07:21:49;101254.23;;;22.29;67.00
56681;BME280;42558;52.388;13.390;2023-06-10T07:24:19;101248.38;;;22.53;64.43
56681;BME280;42558;52.388;13.390;2023-06-10T07:26:50;101248.80;;;22.76;64.25
56681;BME280;42558;52.388;13.390;2023-06-10T07:29:20;101246.65;;;22.82;62.94
56681;BME280;42558;52.388;13.390;2023-06-10T07:31:50;101247.52;;;23.08;62.71
56681;BME280;42558;52.388;13.390;2023-06-10T07:34:20;101253.80;;;23.31;61.74
56681;BME280;42558;52.388;13.390;2023-06-10T07:36:50;101256.45;;;23.32;61.24
56681;BME280;42558;52.388;13.390;2023-06-10T07:39:20;101257.26;;;23.52;60.62
56681;BME280;42558;52.388;13.390;2023-06-10T07:41:50;101258.30;;;23.31;60.18
56681;BME280;42558;52.388;13.390;2023-06-10T07:44:23;101256.75;;;23.29;60.64
56681;BME280;42558;52.388;13.390;2023-06-10T07:46:53;101254.75;;;23.52;60.32
56681;BME280;42558;52.388;13.390;2023-06-10T07:49:24;101252.84;;;24.15;59.98
56681;BME280;42558;52.388;13.390;2023-06-10T07:51:54;101258.69;;;24.32;58.69
56681;BME280;42558;52.388;13.390;2023-06-10T07:54:27;101251.21;;;24.56;56.35
56681;BME280;42558;52.388;13.390;2023-06-10T07:56:59;101251.34;;;24.33;55.58
56681;BME280;42558;52.388;13.390;2023-06-10T07:59:29;101253.23;;;24.25;57.72
56681;BME280;42558;52.388;13.390;2023-06-10T08:01:58;101254.02;;;23.96;57.71
56681;BME280;42558;52.388;13.390;2023-06-10T08:04:29;101256.93;;;23.63;58.10
56681;BME280;42558;52.388;13.390;2023-06-10T08:07:01;101254.75;;;23.63;59.13
56681;BME280;42558;52.388;13.390;2023-06-10T08:09:32;101252.47;;;24.76;57.02
56681;BME280;42558;52.388;13.390;2023-06-10T08:12:02;101250.02;;;25.12;55.35
56681;BME280;42558;52.388;13.390;2023-06-10T08:14:30;101261.53;;;24.08;56.33
56681;BME280;42558;52.388;13.390;2023-06-10T08:16:59;101257.19;;;23.99;56.95
56681;BME280;42558;52.388;13.390;2023-06-10T08:19:27;101256.43;;;23.99;56.74
56681;BME280;42558;52.388;13.390;2023-06-10T08:21:56;101251.59;;;24.56;56.28
56681;BME280;42558;52.388;13.390;2023-06-10T08:24:24;101261.05;;;24.17;56.20
56681;BME280;42558;52.388;13.390;2023-06-10T08:26:53;101258.05;;;24.20;55.56
56681;BME280;42558;52.388;13.390;2023-06-10T08:29:21;101259.23;;;24.38;55.65
56681;BME280;42558;52.388;13.390;2023-06-10T08:31:50;101254.01;;;25.07;54.81
56681;BME280;42558;52.388;13.390;2023-06-10T08:34:18;101249.07;;;25.36;53.84
56681;BME280;42558;52.388;13.390;2023-06-10T08:36:47;101252.80;;;25.38;52.44
56681;BME280;42558;52.388;13.390;2023-06-10T08:39:15;101254.54;;;24.74;53.21
56681;BME280;42558;52.388;13.390;2023-06-10T08:41:54;101255.65;;;24.63;54.12
56681;BME280;42558;52.388;13.390;2023-06-10T08:44:30;101257.45;;;24.72;54.11
56681;BME280;42558;52.388;13.390;2023-06-10T08:47:12;101260.74;;;24.95;54.24
56681;BME280;42558;52.388;13.390;2023-06-10T08:49:47;101261.42;;;24.96;52.21
56681;BME280;42558;52.388;13.390;2023-06-10T08:52:18;101264.61;;;25.08;53.06
56681;BME280;42558;52.388;13.390;2023-06-10T08:54:57;101275.44;;;24.57;53.43
56681;BME280;42558;52.388;13.390;2023-06-10T08:57:30;101272.55;;;25.11;53.65
56681;BME280;42558;52.388;13.390;2023-06-10T08:59:59;101270.27;;;25.82;51.56
56681;BME280;42558;52.388;13.390;2023-06-10T09:02:27;101267.34;;;25.97;50.77
56681;BME280;42558;52.388;13.390;2023-06-10T09:04:58;101266.98;;;26.01;50.96
56681;BME280;42558;52.388;13.390;2023-06-10T09:07:31;101260.23;;;26.36;50.96
56681;BME280;42558;52.388;13.390;2023-06-10T09:10:00;101263.68;;;26.31;50.10
56681;BME280;42558;52.388;13.390;2023-06-10T09:12:34;101261.02;;;26.63;49.49
56681;BME280;42558;52.388;13.390;2023-06-10T09:15:06;101264.40;;;26.27;50.00
56681;BME280;42558;52.388;13.390;2023-06-10T09:17:35;101262.16;;;26.33;50.42
56681;BME280;42558;52.388;13.390;2023-06-10T09:20:08;101256.06;;;26.45;49.68
56681;BME280;42558;52.388;13.390;2023-06-10T09:22:38;101257.46;;;26.04;49.95
56681;BME280;42558;52.388;13.390;2023-06-10T09:25:11;101256.73;;;25.91;50.15
56681;BME280;42558;52.388;13.390;2023-06-10T09:27:51;101255.82;;;26.05;51.21
56681;BME280;42558;52.388;13.390;2023-06-10T09:30:33;101256.80;;;26.36;50.94
56681;BME280;42558;52.388;13.390;2023-06-10T09:33:11;101251.17;;;26.65;48.93
56681;BME280;42558;52.388;13.390;2023-06-10T09:35:49;101244.04;;;27.03;48.23
56681;BME280;42558;52.388;13.390;2023-06-10T09:38:21;101247.73;;;26.70;48.03
56681;BME280;42558;52.388;13.390;2023-06-10T09:40:54;101244.46;;;26.86;49.67
56681;BME280;42558;52.388;13.390;2023-06-10T09:43:22;101247.31;;;27.55;46.80
56681;BME280;42558;52.388;13.390;2023-06-10T09:45:56;101246.17;;;26.99;46.88
56681;BME280;42558;52.388;13.390;2023-06-10T09:48:25;101247.70;;;26.21;48.41
56681;BME280;42558;52.388;13.390;2023-06-10T09:50:55;101249.98;;;26.47;49.18
56681;BME280;42558;52.388;13.390;2023-06-10T09:53:26;101249.44;;;27.15;47.32
56681;BME280;42558;52.388;13.390;2023-06-10T09:55:57;101245.67;;;27.37;46.00
56681;BME280;42558;52.388;13.390;2023-06-10T09:58:39;101251.36;;;27.79;46.73
56681;BME280;42558;52.388;13.390;2023-06-10T10:01:13;101250.33;;;27.63;44.93
56681;BME280;42558;52.388;13.390;2023-06-10T10:03:50;101249.55;;;27.46;46.48
56681;BME280;42558;52.388;13.390;2023-06-10T10:06:20;101250.76;;;28.02;45.52
56681;BME280;42558;52.388;13.390;2023-06-10T10:08:51;101250.59;;;27.54;44.82
56681;BME280;42558;52.388;13.390;2023-06-10T10:11:22;101251.85;;;26.94;46.01
56681;BME280;42558;52.388;13.390;2023-06-10T10:13:52;101252.38;;;26.71;46.33
56681;BME280;42558;52.388;13.390;2023-06-10T10:16:35;101245.29;;;27.03;45.83
56681;BME280;42558;52.388;13.390;2023-06-10T10:19:24;101245.16;;;27.14;45.29
56681;BME280;42558;52.388;13.390;2023-06-10T10:22:04;101245.73;;;27.36;45.14
56681;BME280;42558;52.388;13.390;2023-06-10T10:24:42;101238.17;;;27.09;44.24
56681;BME280;42558;52.388;13.390;2023-06-10T10:27:21;101242.15;;;27.19;46.40
56681;BME280;42558;52.388;13.390;2023-06-10T10:29:58;101248.31;;;27.68;46.14
56681;BME280;42558;52.388;13.390;2023-06-10T10:35:33;101248.31;;;27.64;46.04
56681;BME280;42558;52.388;13.390;2023-06-10T10:38:05;101247.33;;;27.06;45.81
56681;BME280;42558;52.388;13.390;2023-06-10T10:40:37;101250.45;;;26.58;45.96
56681;BME280;42558;52.388;13.390;2023-06-10T10:43:08;101246.73;;;26.19;47.36
56681;BME280;42558;52.388;13.390;2023-06-10T10:45:39;101242.30;;;26.37;46.37
56681;BME280;42558;52.388;13.390;2023-06-10T10:48:09;101244.69;;;26.37;46.21
56681;BME280;42558;52.388;13.390;2023-06-10T10:50:42;101245.19;;;26.58;46.49
56681;BME280;42558;52.388;13.390;2023-06-10T10:53:20;101242.69;;;26.58;45.12
56681;BME280;42558;52.388;13.390;2023-06-10T10:56:08;101233.89;;;27.11;44.07
56681;BME280;42558;52.388;13.390;2023-06-10T10:59:06;101228.40;;;27.24;43.80
56681;BME280;42558;52.388;13.390;2023-06-10T11:01:41;101230.02;;;27.13;43.88
56681;BME280;42558;52.388;13.390;2023-06-10T11:04:12;101227.65;;;26.55;44.78
56681;BME280;42558;52.388;13.390;2023-06-10T11:06:55;101223.02;;;26.46;44.70
56681;BME280;42558;52.388;13.390;2023-06-10T11:09:35;101218.40;;;26.52;43.96
56681;BME280;42558;52.388;13.390;2023-06-10T11:12:07;101218.04;;;26.76;43.73
56681;BME280;42558;52.388;13.390;2023-06-10T11:14:54;101220.94;;;26.64;43.55
56681;BME280;42558;52.388;13.390;2023-06-10T11:17:27;101225.71;;;26.54;43.87
56681;BME280;42558;52.388;13.390;2023-06-10T11:19:59;101231.84;;;26.17;43.77
56681;BME280;42558;52.388;13.390;2023-06-10T11:22:29;101230.17;;;25.80;44.78
56681;BME280;42558;52.388;13.390;2023-06-10T11:24:59;101232.88;;;26.06;43.99
56681;BME280;42558;52.388;13.390;2023-06-10T11:27:37;101229.11;;;26.14;44.42
56681;BME280;42558;52.388;13.390;2023-06-10T11:30:20;101227.72;;;26.08;44.37
56681;BME280;42558;52.388;13.390;2023-06-10T11:32:51;101219.65;;;26.40;44.18
56681;BME280;42558;52.388;13.390;2023-06-10T11:35:24;101215.28;;;27.08;43.16
56681;BME280;42558;52.388;13.390;2023-06-10T11:37:54;101209.98;;;27.17;41.43
56681;BME280;42558;52.388;13.390;2023-06-10T11:40:24;101204.25;;;27.19;41.46
56681;BME280;42558;52.388;13.390;2023-06-10T11:42:54;101198.94;;;27.10;41.77
56681;BME280;42558;52.388;13.390;2023-06-10T11:45:24;101200.77;;;27.14;41.53
56681;BME280;42558;52.388;13.390;2023-06-10T11:47:59;101201.31;;;27.36;41.71
56681;BME280;42558;52.388;13.390;2023-06-10T11:50:33;101199.12;;;27.36;41.04
56681;BME280;42558;52.388;13.390;2023-06-10T11:53:03;101198.23;;;27.39;41.69
56681;BME280;42558;52.388;13.390;2023-06-10T11:55:51;101197.25;;;27.44;40.36
56681;BME280;42558;52.388;13.390;2023-06-10T11:58:22;101191.27;;;27.19;41.51
56681;BME280;42558;52.388;13.390;2023-06-10T12:00:54;101195.83;;;27.48;40.48
56681;BME280;42558;52.388;13.390;2023-06-10T12:03:37;101191.31;;;27.29;40.20
56681;BME280;42558;52.388;13.390;2023-06-10T12:06:07;101188.38;;;27.41;40.97
56681;BME280;42558;52.388;13.390;2023-06-10T12:08:42;101189.16;;;27.47;41.11
56681;BME280;42558;52.388;13.390;2023-06-10T12:11:13;101191.80;;;27.34;40.50
56681;BME280;42558;52.388;13.390;2023-06-10T12:13:48;101190.11;;;27.06;40.27
56681;BME280;42558;52.388;13.390;2023-06-10T12:16:19;101190.05;;;26.99;40.59
56681;BME280;42558;52.388;13.390;2023-06-10T12:18:49;101193.48;;;27.14;41.30
56681;BME280;42558;52.388;13.390;2023-06-10T12:21:23;101204.07;;;26.89;40.75
56681;BME280;42558;52.388;13.390;2023-06-10T12:24:05;101197.36;;;26.74;41.08
56681;BME280;42558;52.388;13.390;2023-06-10T12:26:44;101204.22;;;26.82;40.56
56681;BME280;42558;52.388;13.390;2023-06-10T12:29:18;101200.30;;;26.97;41.00
56681;BME280;42558;52.388;13.390;2023-06-10T12:32:03;101200.70;;;27.26;40.49
56681;BME280;42558;52.388;13.390;2023-06-10T12:34:39;101195.17;;;27.28;40.96
56681;BME280;42558;52.388;13.390;2023-06-10T12:37:13;101193.02;;;27.53;41.05
56681;BME280;42558;52.388;13.390;2023-06-10T12:39:51;101190.95;;;27.48;40.82
56681;BME280;42558;52.388;13.390;2023-06-10T12:42:26;101190.91;;;27.49;41.12
56681;BME280;42558;52.388;13.390;2023-06-10T12:44:56;101182.33;;;27.32;41.84
56681;BME280;42558;52.388;13.390;2023-06-10T12:47:32;101171.46;;;27.22;42.15
56681;BME280;42558;52.388;13.390;2023-06-10T12:50:05;101175.66;;;27.36;41.97
56681;BME280;42558;52.388;13.390;2023-06-10T12:52:35;101176.07;;;27.56;42.44
56681;BME280;42558;52.388;13.390;2023-06-10T12:55:06;101167.91;;;27.54;42.22
56681;BME280;42558;52.388;13.390;2023-06-10T12:57:34;101167.48;;;27.58;41.64
56681;BME280;42558;52.388;13.390;2023-06-10T13:00:02;101163.91;;;27.03;42.64
56681;BME280;42558;52.388;13.390;2023-06-10T13:02:33;101161.94;;;27.32;42.59
56681;BME280;42558;52.388;13.390;2023-06-10T13:05:02;101160.80;;;27.22;42.18